createdAt,value
2023-01-18T00:00:46.865Z,3.07
2023-01-18T00:03:14.326Z,3.60
2023-01-18T00:05:41.870Z,3.50
2023-01-18T00:08:13.196Z,3.17
2023-01-18T00:10:40.318Z,3.67
2023-01-18T00:13:07.240Z,3.93
2023-01-18T00:15:34.850Z,3.47
2023-01-18T00:18:01.986Z,4.43
2023-01-18T00:20:29.703Z,3.40
2023-01-18T00:22:56.788Z,3.40
2023-01-18T00:25:24.711Z,3.30
2023-01-18T00:27:53.785Z,3.87
2023-01-18T00:30:23.621Z,3.50
2023-01-18T00:32:55.323Z,3.90
2023-01-18T00:35:22.595Z,3.37
2023-01-18T00:37:50.872Z,3.93
2023-01-18T00:40:18.738Z,3.87
2023-01-18T00:43:03.981Z,3.73
2023-01-18T00:45:30.788Z,3.63
2023-01-18T00:47:58.238Z,3.70
2023-01-18T00:50:25.177Z,4.07
2023-01-18T00:52:56.932Z,3.97
2023-01-18T00:55:24.407Z,3.70
2023-01-18T00:57:51.401Z,3.67
2023-01-18T01:00:18.974Z,3.90
2023-01-18T01:02:46.026Z,3.87
2023-01-18T01:05:37.331Z,3.60
2023-01-18T01:08:05.818Z,3.33
2023-01-18T01:10:33.614Z,4.20
2023-01-18T01:13:19.569Z,3.63
2023-01-18T01:16:05.176Z,3.90
2023-01-18T01:18:50.588Z,3.50
2023-01-18T01:21:36.157Z,3.80
2023-01-18T01:24:21.539Z,4.03
2023-01-18T01:26:48.181Z,3.70
2023-01-18T01:29:15.929Z,3.70
2023-01-18T01:31:42.559Z,3.83
2023-01-18T01:34:09.732Z,4.00
2023-01-18T01:36:36.481Z,4.93
2023-01-18T01:39:03.988Z,4.53
2023-01-18T01:41:33.242Z,4.30
2023-01-18T01:44:04.370Z,4.50
2023-01-18T01:46:49.128Z,3.40
2023-01-18T01:49:26.771Z,4.33
2023-01-18T01:52:02.528Z,4.10
2023-01-18T01:54:42.406Z,4.57
2023-01-18T01:57:24.981Z,4.50
2023-01-18T02:00:05.075Z,4.50
2023-01-18T02:02:33.294Z,4.40
2023-01-18T02:05:01.125Z,4.60
2023-01-18T02:07:28.807Z,4.50
2023-01-18T02:09:56.561Z,4.33
2023-01-18T02:12:24.623Z,4.30
2023-01-18T02:14:52.086Z,4.67
2023-01-18T02:17:53.936Z,4.60
2023-01-18T02:20:58.052Z,4.90
2023-01-18T02:23:30.527Z,4.50
2023-01-18T02:26:36.463Z,6.67
2023-01-18T02:29:13.428Z,5.07
2023-01-18T02:32:00.546Z,5.10
2023-01-18T02:34:30.620Z,5.07
2023-01-18T02:37:07.556Z,4.93
2023-01-18T02:39:57.525Z,5.13
2023-01-18T02:42:45.743Z,5.47
2023-01-18T02:46:00.646Z,5.63
2023-01-18T02:48:50.535Z,6.00
2023-01-18T02:51:17.299Z,5.40
2023-01-18T02:53:45.160Z,5.87
2023-01-18T02:56:30.009Z,5.47
2023-01-18T02:59:16.888Z,6.70
2023-01-18T03:01:44.306Z,5.23
2023-01-18T03:04:34.415Z,5.47
2023-01-18T03:07:12.993Z,5.33
2023-01-18T03:09:41.022Z,6.13
2023-01-18T03:12:18.425Z,6.03
2023-01-18T03:14:54.408Z,5.97
2023-01-18T03:17:42.120Z,6.03
2023-01-18T03:20:14.689Z,6.10
2023-01-18T03:23:09.114Z,5.40
2023-01-18T03:25:45.746Z,5.50
2023-01-18T03:28:40.963Z,6.33
2023-01-18T03:31:29.800Z,6.23
2023-01-18T03:34:09.825Z,5.80
2023-01-18T03:36:40.073Z,5.80
2023-01-18T03:39:11.796Z,6.07
2023-01-18T03:41:41.359Z,6.73
2023-01-18T03:44:33.212Z,6.10
2023-01-18T03:47:00.094Z,5.83
2023-01-18T03:49:27.509Z,5.03
2023-01-18T03:52:19.291Z,5.57
2023-01-18T03:54:52.345Z,5.47
2023-01-18T03:57:38.122Z,5.67
2023-01-18T04:00:06.060Z,5.63
2023-01-18T04:02:32.819Z,5.30
2023-01-18T04:05:03.646Z,5.27
2023-01-18T04:07:31.893Z,5.43
2023-01-18T04:09:59.535Z,5.63
2023-01-18T04:12:26.153Z,5.40
2023-01-18T04:14:52.848Z,5.17
2023-01-18T04:17:20.470Z,5.80
2023-01-18T04:19:47.118Z,5.60
2023-01-18T04:22:13.938Z,5.53
2023-01-18T04:24:40.732Z,5.60
2023-01-18T04:27:07.441Z,5.23
2023-01-18T04:29:34.151Z,5.03
2023-01-18T04:32:00.827Z,5.53
2023-01-18T04:34:27.544Z,5.23
2023-01-18T04:36:54.190Z,5.20
2023-01-18T04:39:21.099Z,5.60
2023-01-18T04:41:47.789Z,5.50
2023-01-18T04:44:14.662Z,5.80
2023-01-18T04:46:41.361Z,5.67
2023-01-18T04:49:12.219Z,5.57
2023-01-18T04:51:39.354Z,5.30
2023-01-18T04:54:06.115Z,5.10
2023-01-18T04:56:32.740Z,5.80
2023-01-18T04:58:59.408Z,5.57
2023-01-18T05:01:26.397Z,5.33
2023-01-18T05:03:53.942Z,5.23
2023-01-18T05:06:20.608Z,5.30
2023-01-18T05:08:47.289Z,5.00
2023-01-18T05:11:19.360Z,4.60
2023-01-18T05:13:46.290Z,4.67
2023-01-18T05:16:15.064Z,5.27
2023-01-18T05:18:41.794Z,4.97
2023-01-18T05:21:08.534Z,4.00
2023-01-18T05:23:35.201Z,4.47
2023-01-18T05:26:02.115Z,4.43
2023-01-18T05:28:28.936Z,4.00
2023-01-18T05:30:56.506Z,4.23
2023-01-18T05:33:23.612Z,3.53
2023-01-18T05:35:51.871Z,3.77
2023-01-18T05:38:19.007Z,4.27
2023-01-18T05:40:47.850Z,3.80
2023-01-18T05:43:14.635Z,3.50
2023-01-18T05:45:42.435Z,3.53
2023-01-18T05:48:10.389Z,3.30
2023-01-18T05:50:40.698Z,3.50
2023-01-18T05:53:07.750Z,3.00
2023-01-18T05:55:34.593Z,3.27
2023-01-18T05:58:01.525Z,2.97
2023-01-18T06:00:28.339Z,3.13
2023-01-18T06:02:55.137Z,3.03
2023-01-18T06:05:23.121Z,2.73
2023-01-18T06:07:49.848Z,2.80
2023-01-18T06:10:17.141Z,2.93
2023-01-18T06:12:44.571Z,2.73
2023-01-18T06:15:11.993Z,2.90
2023-01-18T06:17:39.151Z,2.80
2023-01-18T06:20:06.540Z,2.47
2023-01-18T06:22:33.436Z,2.70
2023-01-18T06:25:00.143Z,2.70
2023-01-18T06:27:26.884Z,2.43
2023-01-18T06:29:53.516Z,2.63
2023-01-18T06:32:20.200Z,2.60
2023-01-18T06:34:46.875Z,2.70
2023-01-18T06:37:13.633Z,2.70
2023-01-18T06:39:40.381Z,2.60
2023-01-18T06:42:07.063Z,2.43
2023-01-18T06:44:33.676Z,2.37
2023-01-18T06:47:00.314Z,2.50
2023-01-18T06:49:27.387Z,2.70
2023-01-18T06:51:54.014Z,2.97
2023-01-18T06:54:20.677Z,2.80
2023-01-18T06:56:48.190Z,2.53
2023-01-18T06:59:15.606Z,2.73
2023-01-18T07:01:42.382Z,2.37
2023-01-18T07:04:09.227Z,2.70
2023-01-18T07:06:36.727Z,2.53
2023-01-18T07:09:07.559Z,2.60
2023-01-18T07:11:35.758Z,2.80
2023-01-18T07:14:02.799Z,2.90
2023-01-18T07:16:30.169Z,3.03
2023-01-18T07:18:58.567Z,3.10
2023-01-18T07:21:29.571Z,3.40
2023-01-18T07:23:57.676Z,3.80
2023-01-18T07:26:25.288Z,3.77
2023-01-18T07:28:54.644Z,3.23
2023-01-18T07:31:23.721Z,3.90
2023-01-18T07:33:50.629Z,3.20
2023-01-18T07:36:17.296Z,3.70
2023-01-18T07:38:44.700Z,3.83
2023-01-18T07:41:14.800Z,4.47
2023-01-18T07:43:42.663Z,4.53
2023-01-18T07:46:13.491Z,4.50
2023-01-18T07:48:40.585Z,4.60
2023-01-18T07:51:09.459Z,5.13
2023-01-18T07:53:37.177Z,5.03
2023-01-18T07:56:13.708Z,4.63
2023-01-18T07:58:40.899Z,4.37
2023-01-18T08:01:15.546Z,5.13
2023-01-18T08:03:43.581Z,5.13
2023-01-18T08:06:13.480Z,4.47
2023-01-18T08:08:40.560Z,5.23
2023-01-18T08:11:07.589Z,4.93
2023-01-18T08:13:34.443Z,4.67
2023-01-18T08:16:03.577Z,4.50
2023-01-18T08:18:30.427Z,4.67
2023-01-18T08:20:57.420Z,4.70
2023-01-18T08:23:24.277Z,4.50
2023-01-18T08:25:50.926Z,5.17
2023-01-18T08:28:17.856Z,6.00
2023-01-18T08:30:47.117Z,4.33
2023-01-18T08:33:14.456Z,4.57
2023-01-18T08:35:46.251Z,4.80
2023-01-18T08:38:15.078Z,4.70
2023-01-18T08:40:42.306Z,4.90
2023-01-18T08:43:10.892Z,5.30
2023-01-18T08:45:37.648Z,4.70
2023-01-18T08:48:10.156Z,4.67
2023-01-18T08:50:39.124Z,4.63
2023-01-18T08:53:05.734Z,4.80
2023-01-18T08:55:34.037Z,4.53
2023-01-18T08:58:00.761Z,4.60
2023-01-18T09:00:30.618Z,4.03
2023-01-18T09:02:58.389Z,4.33
2023-01-18T09:05:26.974Z,4.63
2023-01-18T09:07:54.143Z,4.77
2023-01-18T09:10:21.769Z,4.73
2023-01-18T09:12:48.512Z,4.03
2023-01-18T09:15:15.213Z,4.50
2023-01-18T09:17:41.883Z,3.80
2023-01-18T09:20:09.793Z,4.33
2023-01-18T09:22:36.882Z,4.00
2023-01-18T09:25:04.730Z,4.13
2023-01-18T09:27:31.711Z,4.27
2023-01-18T09:29:58.395Z,4.07
2023-01-18T09:32:26.268Z,4.20
2023-01-18T09:34:53.094Z,3.73
2023-01-18T09:37:19.827Z,3.93
2023-01-18T09:39:52.186Z,3.90
2023-01-18T09:42:21.948Z,4.23
2023-01-18T09:44:52.836Z,3.90
2023-01-18T09:47:40.127Z,4.00
2023-01-18T09:50:18.007Z,4.13
2023-01-18T09:53:17.082Z,3.80
2023-01-18T09:55:48.429Z,4.20
2023-01-18T09:58:19.165Z,4.20
2023-01-18T10:00:47.863Z,4.00
2023-01-18T10:03:19.727Z,3.87
2023-01-18T10:06:08.524Z,4.07
2023-01-18T10:08:39.715Z,3.70
2023-01-18T10:11:32.860Z,3.23
2023-01-18T10:14:14.141Z,3.73
2023-01-18T10:16:40.938Z,3.90
2023-01-18T10:19:24.943Z,3.50
2023-01-18T10:22:05.394Z,3.60
2023-01-18T10:24:43.551Z,3.53
2023-01-18T10:27:36.609Z,3.50
2023-01-18T10:30:25.821Z,3.70
2023-01-18T10:32:58.093Z,4.23
2023-01-18T10:35:32.039Z,3.87
2023-01-18T10:38:09.196Z,3.70
2023-01-18T10:40:37.723Z,5.53
2023-01-18T10:43:10.292Z,3.70
2023-01-18T10:45:36.965Z,4.90
2023-01-18T10:48:28.787Z,4.47
2023-01-18T10:50:58.308Z,4.97
2023-01-18T10:53:39.052Z,4.17
2023-01-18T10:56:18.638Z,4.30
2023-01-18T10:58:51.376Z,3.97
2023-01-18T11:01:33.651Z,4.93
2023-01-18T11:04:08.095Z,4.10
2023-01-18T11:06:45.532Z,4.20
2023-01-18T11:09:44.256Z,3.70
2023-01-18T11:12:38.222Z,3.83
2023-01-18T11:15:13.954Z,3.73
2023-01-18T11:17:45.904Z,4.00
2023-01-18T11:20:19.945Z,4.00
2023-01-18T11:22:58.619Z,4.13
2023-01-18T11:25:37.615Z,4.23
2023-01-18T11:28:07.448Z,4.17
2023-01-18T11:30:34.668Z,4.10
2023-01-18T11:33:01.531Z,4.00
2023-01-18T11:35:34.490Z,4.33
2023-01-18T11:38:03.093Z,3.93
2023-01-18T11:40:34.843Z,4.50
2023-01-18T11:43:12.001Z,4.00
2023-01-18T11:45:55.270Z,4.20
2023-01-18T11:48:44.897Z,3.73
2023-01-18T11:51:32.610Z,4.23
2023-01-18T11:54:11.453Z,3.90
2023-01-18T11:56:42.604Z,3.50
2023-01-18T11:59:25.949Z,3.93
2023-01-18T12:02:04.519Z,4.10
2023-01-18T12:04:53.208Z,3.50
2023-01-18T12:07:50.779Z,3.80
2023-01-18T12:10:23.454Z,3.63
2023-01-18T12:13:05.100Z,3.40
2023-01-18T12:15:43.067Z,3.30
2023-01-18T12:18:46.395Z,3.57
2023-01-18T12:21:16.828Z,3.70
2023-01-18T12:23:53.356Z,3.70
2023-01-18T12:26:53.111Z,3.70
2023-01-18T12:29:55.104Z,3.60
2023-01-18T12:32:25.637Z,4.10
2023-01-18T12:35:31.422Z,3.30
2023-01-18T12:38:25.536Z,4.63
2023-01-18T12:41:19.690Z,4.33
2023-01-18T12:43:49.300Z,3.93
2023-01-18T12:46:33.689Z,4.03
2023-01-18T12:49:04.449Z,4.70
2023-01-18T12:51:35.342Z,3.07
2023-01-18T12:54:25.338Z,3.63
2023-01-18T12:56:54.849Z,3.50
2023-01-18T12:59:28.774Z,4.40
2023-01-18T13:02:00.435Z,3.60
2023-01-18T13:04:35.133Z,3.20
2023-01-18T13:07:07.193Z,3.50
2023-01-18T13:09:39.483Z,3.33
2023-01-18T13:12:06.946Z,3.60
2023-01-18T13:14:51.226Z,4.07
2023-01-18T13:17:27.456Z,3.40
2023-01-18T13:20:17.663Z,3.00
2023-01-18T13:23:01.801Z,2.90
2023-01-18T13:25:49.576Z,4.53
2023-01-18T13:28:23.347Z,3.17
2023-01-18T13:30:56.954Z,3.40
2023-01-18T13:33:28.533Z,3.00
2023-01-18T13:35:57.871Z,4.77
2023-01-18T13:38:40.485Z,4.60
2023-01-18T13:41:11.468Z,3.50
2023-01-18T13:43:38.142Z,3.50
2023-01-18T13:46:07.940Z,3.53
2023-01-18T13:49:36.625Z,3.10
2023-01-18T13:52:35.716Z,3.43
2023-01-18T13:55:07.653Z,3.30
2023-01-18T13:57:35.301Z,3.40
2023-01-18T14:00:02.656Z,2.93
2023-01-18T14:02:41.878Z,3.70
2023-01-18T14:05:26.681Z,3.03
2023-01-18T14:07:57.092Z,3.03
2023-01-18T14:10:31.519Z,3.03
2023-01-18T14:13:00.251Z,2.70
2023-01-18T14:15:39.950Z,3.10
2023-01-18T14:18:26.246Z,3.60
2023-01-18T14:21:20.426Z,3.67
2023-01-18T14:24:24.952Z,2.67
2023-01-18T14:26:54.290Z,4.07
2023-01-18T14:29:39.660Z,2.80
2023-01-18T14:32:08.088Z,3.63
2023-01-18T14:34:40.222Z,2.97
2023-01-18T14:37:27.682Z,3.20
2023-01-18T14:40:13.182Z,4.07
2023-01-18T14:42:46.700Z,4.13
2023-01-18T14:45:21.256Z,3.23
2023-01-18T14:47:48.176Z,4.83
2023-01-18T14:50:20.487Z,3.20
2023-01-18T14:52:48.988Z,2.97
2023-01-18T14:55:32.580Z,3.00
2023-01-18T14:58:08.299Z,4.17
2023-01-18T15:00:45.924Z,3.17
2023-01-18T15:03:14.596Z,2.97
2023-01-18T15:05:42.046Z,2.50
2023-01-18T15:08:11.450Z,2.97
2023-01-18T15:10:39.209Z,3.33
2023-01-18T15:13:06.561Z,2.83
2023-01-18T15:15:39.978Z,3.07
2023-01-18T15:18:14.251Z,3.70
2023-01-18T15:20:58.950Z,2.77
2023-01-18T15:23:26.698Z,2.87
2023-01-18T15:25:54.047Z,2.80
2023-01-18T15:28:24.364Z,2.77
2023-01-18T15:30:59.013Z,2.27
2023-01-18T15:33:27.111Z,3.50
2023-01-18T15:36:01.142Z,3.03
2023-01-18T15:38:28.043Z,3.30
2023-01-18T15:41:11.078Z,2.63
2023-01-18T15:43:42.031Z,3.20
2023-01-18T15:46:10.946Z,2.83
2023-01-18T15:48:47.860Z,2.50
2023-01-18T15:51:14.720Z,3.30
2023-01-18T15:53:49.522Z,3.20
2023-01-18T15:56:23.616Z,3.20
2023-01-18T15:58:55.645Z,3.53
2023-01-18T16:01:31.908Z,3.10
2023-01-18T16:04:09.191Z,3.53
2023-01-18T16:06:37.487Z,3.40
2023-01-18T16:09:12.060Z,3.60
2023-01-18T16:11:46.285Z,3.07
2023-01-18T16:14:31.405Z,3.73
2023-01-18T16:17:11.533Z,2.83
2023-01-18T16:19:46.021Z,3.33
2023-01-18T16:22:24.689Z,3.63
2023-01-18T16:24:58.340Z,3.83
2023-01-18T16:27:27.259Z,3.10
2023-01-18T16:29:59.708Z,2.90
2023-01-18T16:32:28.917Z,3.40
2023-01-18T16:35:10.011Z,3.20
2023-01-18T16:37:38.804Z,2.57
2023-01-18T16:40:09.497Z,2.90
2023-01-18T16:43:03.189Z,2.77
2023-01-18T16:45:31.566Z,2.87
2023-01-18T16:47:58.723Z,4.33
2023-01-18T16:50:25.604Z,3.13
2023-01-18T16:52:52.278Z,3.07
2023-01-18T16:55:19.064Z,3.07
2023-01-18T16:57:46.130Z,3.17
2023-01-18T17:00:22.353Z,3.20
2023-01-18T17:02:49.202Z,3.20
2023-01-18T17:05:17.909Z,2.87
2023-01-18T17:07:45.159Z,5.00
2023-01-18T17:10:38.183Z,4.20
2023-01-18T17:13:05.262Z,2.80
2023-01-18T17:15:34.563Z,3.33
2023-01-18T17:18:02.181Z,3.03
2023-01-18T17:20:29.658Z,3.27
2023-01-18T17:22:56.581Z,3.63
2023-01-18T17:25:24.125Z,3.80
2023-01-18T17:27:51.354Z,2.90
2023-01-18T17:30:21.542Z,3.20
2023-01-18T17:32:48.843Z,2.60
2023-01-18T17:35:17.683Z,3.67
2023-01-18T17:37:44.507Z,3.03
2023-01-18T17:40:19.554Z,2.90
2023-01-18T17:42:46.998Z,2.93
2023-01-18T17:45:14.435Z,2.73
2023-01-18T17:47:42.972Z,3.40
2023-01-18T17:50:12.225Z,3.23
2023-01-18T17:52:39.989Z,2.77
2023-01-18T17:55:07.904Z,2.90
2023-01-18T17:57:34.797Z,2.97
2023-01-18T18:00:01.599Z,3.17
2023-01-18T18:02:28.306Z,3.27
2023-01-18T18:04:54.997Z,3.40
2023-01-18T18:07:21.720Z,3.90
2023-01-18T18:09:48.348Z,4.00
2023-01-18T18:12:14.991Z,4.40
2023-01-18T18:14:41.716Z,4.13
2023-01-18T18:17:08.677Z,4.57
2023-01-18T18:19:35.449Z,4.60
2023-01-18T18:22:02.125Z,4.43
2023-01-18T18:24:28.774Z,4.50
2023-01-18T18:26:55.391Z,4.97
2023-01-18T18:29:22.164Z,6.10
2023-01-18T18:31:48.836Z,4.40
2023-01-18T18:34:15.954Z,4.30
2023-01-18T18:36:42.607Z,4.73
2023-01-18T18:39:09.527Z,4.43
2023-01-18T18:41:36.190Z,4.60
2023-01-18T18:44:05.767Z,5.93
2023-01-18T18:46:32.676Z,5.07
2023-01-18T18:48:59.355Z,4.90
2023-01-18T18:51:26.072Z,4.57
2023-01-18T18:53:59.700Z,4.53
2023-01-18T18:56:28.514Z,4.17
2023-01-18T18:58:55.146Z,4.30
2023-01-18T19:01:24.053Z,4.87
2023-01-18T19:03:52.343Z,4.17
2023-01-18T19:06:20.348Z,4.40
2023-01-18T19:08:47.369Z,4.67
2023-01-18T19:11:15.550Z,4.80
2023-01-18T19:13:43.199Z,4.70
2023-01-18T19:16:10.452Z,5.57
2023-01-18T19:18:37.174Z,4.50
2023-01-18T19:21:04.391Z,4.87
2023-01-18T19:23:31.132Z,5.00
2023-01-18T19:25:58.748Z,5.13
2023-01-18T19:28:25.359Z,4.90
2023-01-18T19:30:52.003Z,4.50
2023-01-18T19:33:18.667Z,4.73
2023-01-18T19:35:46.278Z,4.27
2023-01-18T19:38:13.660Z,4.27
2023-01-18T19:40:40.334Z,4.93
2023-01-18T19:43:09.221Z,4.50
2023-01-18T19:45:37.636Z,5.03
2023-01-18T19:48:05.089Z,5.37
2023-01-18T19:50:32.066Z,4.73
2023-01-18T19:52:59.417Z,5.13
2023-01-18T19:55:35.514Z,4.73
2023-01-18T19:58:04.782Z,5.10
2023-01-18T20:00:31.453Z,5.13
2023-01-18T20:02:59.827Z,6.50
2023-01-18T20:05:27.418Z,5.43
2023-01-18T20:07:54.103Z,6.53
2023-01-18T20:10:20.951Z,5.90
2023-01-18T20:12:48.766Z,7.43
2023-01-18T20:15:17.210Z,5.57
2023-01-18T20:17:43.911Z,5.27
2023-01-18T20:20:14.219Z,5.10
2023-01-18T20:22:46.256Z,5.27
2023-01-18T20:25:12.981Z,5.77
2023-01-18T20:27:39.613Z,5.80
2023-01-18T20:30:06.863Z,4.93
2023-01-18T20:32:33.632Z,5.00
2023-01-18T20:35:00.391Z,4.93
2023-01-18T20:37:26.999Z,4.67
2023-01-18T20:39:56.340Z,4.80
2023-01-18T20:42:22.989Z,5.23
2023-01-18T20:44:53.492Z,4.87
2023-01-18T20:47:20.345Z,5.17
2023-01-18T20:49:47.079Z,5.30
2023-01-18T20:52:14.083Z,5.33
2023-01-18T20:54:40.834Z,4.93
2023-01-18T20:57:07.576Z,5.97
2023-01-18T20:59:34.442Z,4.90
2023-01-18T21:02:01.905Z,5.13
2023-01-18T21:04:28.705Z,5.10
2023-01-18T21:06:57.166Z,6.13
2023-01-18T21:09:40.708Z,5.03
2023-01-18T21:12:07.497Z,4.27
2023-01-18T21:14:34.221Z,4.93
2023-01-18T21:17:00.878Z,4.50
2023-01-18T21:19:27.590Z,4.67
2023-01-18T21:21:54.235Z,5.70
2023-01-18T21:24:21.076Z,4.60
2023-01-18T21:26:47.723Z,4.63
2023-01-18T21:29:14.439Z,4.80
2023-01-18T21:31:41.233Z,4.70
2023-01-18T21:34:08.010Z,4.83
2023-01-18T21:36:35.098Z,5.47
2023-01-18T21:39:01.839Z,5.43
2023-01-18T21:41:47.585Z,4.57
2023-01-18T21:44:33.005Z,4.57
2023-01-18T21:46:59.717Z,4.70
2023-01-18T21:50:15.445Z,4.70
2023-01-18T21:52:49.970Z,4.30
2023-01-18T21:55:17.171Z,4.43
2023-01-18T21:57:43.872Z,4.63
2023-01-18T22:00:11.193Z,5.87
2023-01-18T22:02:38.301Z,4.27
2023-01-18T22:05:05.353Z,4.00
2023-01-18T22:07:34.158Z,5.47
2023-01-18T22:10:06.958Z,4.80
2023-01-18T22:12:35.561Z,4.03
2023-01-18T22:15:04.274Z,4.47
2023-01-18T22:17:31.068Z,4.87
2023-01-18T22:19:57.819Z,3.93
2023-01-18T22:22:24.566Z,4.30
2023-01-18T22:24:51.379Z,4.20
2023-01-18T22:27:18.080Z,3.97
2023-01-18T22:29:44.721Z,4.77
2023-01-18T22:32:11.372Z,4.13
2023-01-18T22:34:37.998Z,4.30
2023-01-18T22:37:05.644Z,3.97
2023-01-18T22:39:32.315Z,4.43
2023-01-18T22:41:58.951Z,4.70
2023-01-18T22:44:25.573Z,4.00
2023-01-18T22:46:52.230Z,4.97
2023-01-18T22:49:18.961Z,3.87
2023-01-18T22:51:45.627Z,3.73
2023-01-18T22:54:12.269Z,4.20
2023-01-18T22:56:38.966Z,4.67
2023-01-18T22:59:05.881Z,3.53
2023-01-18T23:01:33.122Z,4.23
2023-01-18T23:04:01.905Z,3.83
2023-01-18T23:06:33.719Z,3.77
2023-01-18T23:09:00.337Z,5.40
2023-01-18T23:11:29.523Z,4.73
2023-01-18T23:14:16.747Z,4.10
2023-01-18T23:17:02.503Z,3.93
2023-01-18T23:19:30.603Z,3.80
2023-01-18T23:21:57.559Z,3.77
2023-01-18T23:24:24.303Z,4.60
2023-01-18T23:26:51.590Z,3.83
2023-01-18T23:29:18.417Z,4.47
2023-01-18T23:31:45.570Z,3.80
2023-01-18T23:34:12.268Z,4.13
2023-01-18T23:36:38.977Z,4.33
2023-01-18T23:39:24.341Z,3.60
2023-01-18T23:42:09.781Z,3.87
2023-01-18T23:44:55.136Z,5.27
2023-01-18T23:47:40.539Z,3.93
2023-01-18T23:50:26.045Z,4.10
2023-01-18T23:53:11.489Z,3.90
2023-01-18T23:55:38.122Z,3.73
2023-01-18T23:58:04.810Z,4.43
